createdAt,value
2018-12-26T00:00:16.843Z,4.40
2018-12-26T00:02:44.251Z,4.40
2018-12-26T00:05:11.661Z,4.30
2018-12-26T00:07:39.077Z,4.40
2018-12-26T00:10:06.555Z,4.30
2018-12-26T00:12:34.286Z,4.30
2018-12-26T00:15:01.645Z,4.40
2018-12-26T00:17:29.061Z,4.40
2018-12-26T00:19:56.544Z,4.50
2018-12-26T00:22:23.983Z,4.50
2018-12-26T00:24:51.409Z,4.50
2018-12-26T00:27:19.096Z,4.50
2018-12-26T00:29:46.515Z,4.40
2018-12-26T00:32:13.975Z,4.30
2018-12-26T00:34:41.363Z,4.30
2018-12-26T00:37:08.763Z,4.40
2018-12-26T00:39:36.176Z,4.40
2018-12-26T00:42:03.497Z,4.20
2018-12-26T00:44:30.915Z,4.00
2018-12-26T00:46:58.333Z,4.10
2018-12-26T00:49:25.670Z,4.20
2018-12-26T00:51:53.095Z,4.30
2018-12-26T00:54:20.515Z,4.40
2018-12-26T00:56:47.959Z,4.50
2018-12-26T00:59:15.342Z,4.40
2018-12-26T01:01:42.699Z,4.50
2018-12-26T01:04:10.098Z,4.50
2018-12-26T01:06:37.534Z,4.60
2018-12-26T01:09:06.710Z,4.60
2018-12-26T01:11:34.121Z,4.70
2018-12-26T01:14:01.566Z,4.80
2018-12-26T01:16:29.315Z,4.80
2018-12-26T01:18:56.733Z,4.60
2018-12-26T01:21:24.346Z,4.50
2018-12-26T01:23:51.660Z,4.50
2018-12-26T01:26:19.480Z,4.60
2018-12-26T01:28:46.838Z,4.60
2018-12-26T01:31:14.178Z,4.60
2018-12-26T01:33:41.475Z,4.70
2018-12-26T01:36:09.224Z,4.70
2018-12-26T01:38:36.531Z,4.60
2018-12-26T01:41:03.945Z,4.40
2018-12-26T01:43:31.276Z,4.30
2018-12-26T01:45:58.667Z,4.50
2018-12-26T01:48:25.965Z,4.70
2018-12-26T01:50:53.302Z,4.80
2018-12-26T01:53:20.676Z,4.80
2018-12-26T01:55:47.996Z,4.80
2018-12-26T01:58:15.433Z,4.70
2018-12-26T02:00:42.809Z,4.60
2018-12-26T02:03:10.470Z,4.70
2018-12-26T02:05:37.834Z,4.60
2018-12-26T02:08:05.464Z,4.70
2018-12-26T02:10:32.822Z,4.70
2018-12-26T02:13:00.118Z,4.80
2018-12-26T02:15:27.525Z,4.80
2018-12-26T02:17:55.145Z,4.70
2018-12-26T02:20:23.050Z,4.50
2018-12-26T02:22:50.354Z,4.30
2018-12-26T02:25:17.764Z,4.50
2018-12-26T02:27:45.157Z,4.40
2018-12-26T02:30:12.460Z,4.30
2018-12-26T02:32:39.888Z,4.40
2018-12-26T02:35:07.270Z,4.40
2018-12-26T02:37:35.573Z,4.40
2018-12-26T02:40:03.626Z,4.50
2018-12-26T02:42:31.053Z,4.60
2018-12-26T02:44:58.450Z,4.60
2018-12-26T02:47:25.892Z,4.60
2018-12-26T02:49:53.283Z,4.70
2018-12-26T02:52:20.672Z,4.80
2018-12-26T02:54:48.453Z,4.70
2018-12-26T02:57:15.743Z,4.70
2018-12-26T02:59:43.188Z,4.70
2018-12-26T03:02:10.470Z,4.60
2018-12-26T03:04:37.774Z,4.70
2018-12-26T03:07:05.168Z,4.80
2018-12-26T03:09:32.566Z,4.80
2018-12-26T03:11:59.866Z,4.80
2018-12-26T03:14:27.233Z,4.80
2018-12-26T03:16:54.543Z,4.90
2018-12-26T03:19:21.939Z,4.80
2018-12-26T03:21:49.313Z,4.80
2018-12-26T03:24:16.655Z,4.80
2018-12-26T03:26:44.401Z,4.30
2018-12-26T03:29:11.815Z,4.00
2018-12-26T03:31:39.210Z,4.10
2018-12-26T03:34:06.808Z,4.20
2018-12-26T03:36:34.111Z,4.30
2018-12-26T03:39:01.403Z,4.40
2018-12-26T03:41:28.872Z,4.40
2018-12-26T03:43:56.398Z,4.50
2018-12-26T03:46:23.781Z,4.50
2018-12-26T03:48:51.386Z,4.20
2018-12-26T03:51:18.668Z,4.30
2018-12-26T03:53:45.938Z,4.40
2018-12-26T03:56:13.305Z,4.40
2018-12-26T03:58:40.708Z,4.30
2018-12-26T04:01:08.099Z,4.50
2018-12-26T04:03:35.502Z,4.60
2018-12-26T04:06:02.854Z,4.60
2018-12-26T04:08:30.227Z,4.30
2018-12-26T04:10:57.635Z,4.30
2018-12-26T04:13:25.009Z,4.50
2018-12-26T04:15:52.620Z,4.50
2018-12-26T04:18:20.109Z,4.50
2018-12-26T04:20:47.510Z,4.30
2018-12-26T04:23:14.944Z,4.10
2018-12-26T04:25:42.316Z,4.20
2018-12-26T04:28:09.594Z,4.20
2018-12-26T04:30:36.854Z,4.20
2018-12-26T04:33:04.160Z,4.00
2018-12-26T04:35:31.559Z,4.00
2018-12-26T04:37:58.896Z,3.70
2018-12-26T04:40:26.272Z,3.80
2018-12-26T04:42:53.470Z,3.80
2018-12-26T04:45:20.798Z,4.00
2018-12-26T04:47:48.141Z,4.10
2018-12-26T04:50:15.461Z,4.00
2018-12-26T04:52:43.109Z,4.00
2018-12-26T04:55:10.446Z,3.60
2018-12-26T04:57:37.755Z,3.70
2018-12-26T05:00:05.168Z,3.80
2018-12-26T05:02:32.561Z,3.70
2018-12-26T05:04:59.821Z,3.50
2018-12-26T05:07:27.224Z,3.70
2018-12-26T05:09:54.520Z,3.80
2018-12-26T05:12:21.814Z,3.70
2018-12-26T05:14:49.190Z,3.80
2018-12-26T05:17:16.596Z,4.00
2018-12-26T05:19:43.886Z,4.10
2018-12-26T05:22:11.503Z,4.00
2018-12-26T05:24:38.752Z,4.10
2018-12-26T05:27:06.403Z,4.00
2018-12-26T05:29:33.797Z,4.00
2018-12-26T05:32:01.112Z,4.10
2018-12-26T05:34:28.494Z,4.10
2018-12-26T05:36:55.774Z,4.20
2018-12-26T05:39:23.201Z,4.30
2018-12-26T05:41:50.581Z,4.40
2018-12-26T05:44:17.950Z,4.40
2018-12-26T05:46:45.224Z,4.00
2018-12-26T05:49:12.498Z,3.80
2018-12-26T05:51:39.804Z,3.80
2018-12-26T05:54:07.084Z,4.00
2018-12-26T05:56:34.703Z,3.90
2018-12-26T05:59:01.986Z,4.00
2018-12-26T06:01:29.261Z,4.30
2018-12-26T06:03:56.571Z,4.30
2018-12-26T06:06:24.222Z,4.00
2018-12-26T06:08:51.531Z,3.90
2018-12-26T06:11:19.130Z,4.10
2018-12-26T06:13:46.636Z,4.10
2018-12-26T06:16:14.312Z,4.20
2018-12-26T06:18:41.670Z,4.40
2018-12-26T06:21:09.256Z,4.40
2018-12-26T06:23:36.628Z,4.20
2018-12-26T06:26:04.019Z,4.30
2018-12-26T06:28:31.408Z,4.30
2018-12-26T06:30:58.736Z,4.20
2018-12-26T06:33:26.139Z,4.20
2018-12-26T06:35:53.427Z,4.30
2018-12-26T06:38:20.743Z,4.20
2018-12-26T06:40:48.052Z,4.30
2018-12-26T06:43:15.368Z,4.40
2018-12-26T06:45:42.645Z,4.50
2018-12-26T06:48:09.944Z,4.30
2018-12-26T06:50:37.262Z,4.20
2018-12-26T06:53:04.685Z,4.30
2018-12-26T06:55:32.062Z,4.40
2018-12-26T06:58:00.211Z,4.50
2018-12-26T07:00:27.844Z,4.20
2018-12-26T07:02:55.160Z,4.00
2018-12-26T07:05:22.866Z,3.90
2018-12-26T07:07:50.161Z,4.10
2018-12-26T07:10:17.532Z,3.90
2018-12-26T07:12:45.023Z,4.00
2018-12-26T07:15:12.332Z,4.00
2018-12-26T07:17:39.655Z,4.10
2018-12-26T07:20:06.975Z,4.10
2018-12-26T07:22:34.411Z,3.80
2018-12-26T07:25:01.817Z,3.70
2018-12-26T07:27:29.212Z,3.90
2018-12-26T07:29:56.629Z,4.10
2018-12-26T07:32:24.035Z,4.20
2018-12-26T07:34:51.477Z,4.20
2018-12-26T07:37:21.190Z,4.20
2018-12-26T07:39:48.464Z,4.30
2018-12-26T07:42:16.313Z,4.30
2018-12-26T07:44:43.685Z,4.40
2018-12-26T07:47:11.082Z,4.40
2018-12-26T07:49:38.410Z,4.20
2018-12-26T07:52:05.805Z,4.30
2018-12-26T07:54:33.115Z,4.50
2018-12-26T07:57:00.543Z,4.10
2018-12-26T07:59:27.973Z,4.00
2018-12-26T08:01:55.421Z,4.00
2018-12-26T08:04:22.840Z,4.10
2018-12-26T08:06:50.259Z,4.00
2018-12-26T08:09:17.737Z,4.00
2018-12-26T08:11:45.334Z,4.00
2018-12-26T08:14:12.729Z,4.30
2018-12-26T08:16:40.073Z,4.40
2018-12-26T08:19:07.448Z,4.50
2018-12-26T08:21:34.898Z,4.50
2018-12-26T08:24:02.244Z,4.60
2018-12-26T08:26:29.626Z,4.40
2018-12-26T08:28:57.019Z,4.30
2018-12-26T08:31:24.347Z,4.20
2018-12-26T08:33:51.746Z,4.10
2018-12-26T08:36:19.078Z,4.00
2018-12-26T08:38:46.499Z,4.20
2018-12-26T08:41:13.890Z,4.20
2018-12-26T08:43:41.537Z,4.10
2018-12-26T08:46:08.944Z,4.20
2018-12-26T08:48:36.415Z,4.00
2018-12-26T08:51:04.837Z,3.90
2018-12-26T08:53:32.160Z,4.10
2018-12-26T08:55:59.627Z,4.20
2018-12-26T08:58:34.957Z,4.10
2018-12-26T09:00:58.623Z,3.90
2018-12-26T09:03:26.011Z,3.60
2018-12-26T09:05:53.342Z,3.60
2018-12-26T09:08:21.015Z,3.70
2018-12-26T09:10:48.317Z,4.00
2018-12-26T09:13:15.733Z,4.20
2018-12-26T09:15:43.069Z,4.40
2018-12-26T09:18:10.544Z,4.40
2018-12-26T09:20:38.003Z,4.20
2018-12-26T09:23:05.345Z,4.00
2018-12-26T09:25:33.192Z,4.00
2018-12-26T09:28:00.572Z,3.90
2018-12-26T09:30:27.951Z,3.70
2018-12-26T09:32:55.360Z,3.80
2018-12-26T09:35:22.805Z,3.90
2018-12-26T09:37:50.312Z,4.20
2018-12-26T09:40:17.724Z,4.40
2018-12-26T09:42:45.133Z,4.40
2018-12-26T09:45:12.605Z,4.40
2018-12-26T09:47:40.083Z,4.60
2018-12-26T09:50:07.544Z,4.70
2018-12-26T09:52:34.978Z,4.70
2018-12-26T09:55:02.432Z,4.60
2018-12-26T09:57:29.811Z,4.60
2018-12-26T09:59:57.247Z,4.60
2018-12-26T10:02:24.697Z,4.60
2018-12-26T10:04:52.141Z,4.70
2018-12-26T10:07:19.473Z,4.80
2018-12-26T10:09:47.253Z,5.10
2018-12-26T10:12:14.954Z,5.10
2018-12-26T10:14:42.401Z,5.10
2018-12-26T10:17:09.809Z,5.10
2018-12-26T10:19:37.215Z,5.10
2018-12-26T10:22:04.654Z,5.10
2018-12-26T10:24:36.396Z,5.20
2018-12-26T10:27:03.709Z,5.10
2018-12-26T10:29:31.352Z,5.10
2018-12-26T10:31:58.831Z,5.10
2018-12-26T10:34:26.555Z,5.20
2018-12-26T10:36:54.302Z,5.30
2018-12-26T10:39:21.818Z,5.20
2018-12-26T10:41:49.300Z,5.20
2018-12-26T10:44:16.711Z,5.20
2018-12-26T10:46:44.472Z,5.20
2018-12-26T10:49:11.897Z,5.20
2018-12-26T10:51:39.264Z,5.30
2018-12-26T10:54:06.747Z,5.30
2018-12-26T10:56:34.240Z,5.10
2018-12-26T10:59:09.744Z,5.20
2018-12-26T11:01:31.027Z,5.00
2018-12-26T11:03:58.459Z,5.00
2018-12-26T11:06:25.947Z,5.20
2018-12-26T11:08:53.368Z,5.30
2018-12-26T11:11:20.755Z,5.30
2018-12-26T11:13:48.245Z,5.40
2018-12-26T11:16:15.740Z,5.40
2018-12-26T11:18:43.186Z,5.30
2018-12-26T11:21:10.619Z,5.00
2018-12-26T11:23:38.106Z,5.10
2018-12-26T11:26:05.533Z,5.20
2018-12-26T11:28:32.843Z,5.30
2018-12-26T11:31:00.309Z,5.30
2018-12-26T11:33:28.148Z,5.40
2018-12-26T11:35:55.561Z,5.30
2018-12-26T11:38:23.027Z,4.90
2018-12-26T11:40:50.430Z,4.70
2018-12-26T11:43:18.199Z,4.80
2018-12-26T11:45:45.627Z,4.90
2018-12-26T11:48:12.970Z,5.10
2018-12-26T11:50:40.600Z,5.30
2018-12-26T11:53:07.910Z,5.30
2018-12-26T11:55:35.600Z,5.50
2018-12-26T11:58:03.255Z,5.50
2018-12-26T12:00:30.825Z,5.50
2018-12-26T12:02:58.304Z,5.60
2018-12-26T12:05:25.709Z,5.70
2018-12-26T12:07:53.076Z,5.80
2018-12-26T12:10:20.749Z,5.90
2018-12-26T12:12:48.242Z,5.90
2018-12-26T12:15:15.662Z,5.80
2018-12-26T12:17:43.057Z,5.60
2018-12-26T12:20:10.832Z,5.50
2018-12-26T12:22:38.342Z,5.60
2018-12-26T12:25:05.804Z,5.90
2018-12-26T12:27:33.310Z,6.00
2018-12-26T12:30:01.060Z,6.00
2018-12-26T12:32:28.520Z,5.90
2018-12-26T12:34:55.938Z,6.00
2018-12-26T12:37:23.388Z,5.90
2018-12-26T12:39:50.833Z,5.70
2018-12-26T12:42:21.560Z,5.40
2018-12-26T12:44:49.314Z,5.20
2018-12-26T12:47:16.756Z,5.30
2018-12-26T12:49:45.998Z,5.30
2018-12-26T12:52:13.366Z,5.40
2018-12-26T12:54:40.761Z,5.50
2018-12-26T12:57:08.217Z,5.40
2018-12-26T12:59:35.666Z,5.40
2018-12-26T13:02:03.175Z,5.20
2018-12-26T13:04:30.757Z,5.20
2018-12-26T13:06:58.530Z,5.10
2018-12-26T13:09:26.295Z,5.20
2018-12-26T13:11:53.815Z,5.30
2018-12-26T13:14:21.211Z,5.40
2018-12-26T13:16:48.635Z,5.50
2018-12-26T13:19:16.051Z,5.50
2018-12-26T13:21:43.542Z,5.30
2018-12-26T13:24:11.055Z,5.20
2018-12-26T13:26:38.408Z,5.30
2018-12-26T13:29:05.908Z,5.30
2018-12-26T13:31:33.632Z,5.10
2018-12-26T13:34:01.179Z,5.10
2018-12-26T13:36:28.757Z,5.10
2018-12-26T13:38:56.461Z,5.20
2018-12-26T13:41:23.903Z,5.20
2018-12-26T13:43:51.363Z,5.30
2018-12-26T13:46:18.794Z,5.20
2018-12-26T13:48:46.143Z,5.20
2018-12-26T13:51:13.604Z,5.30
2018-12-26T13:53:41.064Z,5.30
2018-12-26T13:56:08.613Z,5.40
2018-12-26T13:58:36.036Z,5.40
2018-12-26T14:01:03.794Z,5.20
2018-12-26T14:03:31.507Z,5.10
2018-12-26T14:05:58.858Z,5.00
2018-12-26T14:08:26.207Z,5.00
2018-12-26T14:10:53.707Z,5.00
2018-12-26T14:13:21.154Z,5.10
2018-12-26T14:15:48.485Z,5.10
2018-12-26T14:18:15.894Z,5.00
2018-12-26T14:20:43.371Z,5.00
2018-12-26T14:23:10.822Z,4.90
2018-12-26T14:25:38.161Z,4.70
2018-12-26T14:28:05.602Z,4.80
2018-12-26T14:30:33.111Z,4.70
2018-12-26T14:33:00.566Z,4.80
2018-12-26T14:35:28.008Z,4.80
2018-12-26T14:37:55.447Z,4.80
2018-12-26T14:40:22.928Z,4.90
2018-12-26T14:42:50.361Z,4.90
2018-12-26T14:45:17.696Z,4.80
2018-12-26T14:47:45.220Z,4.80
2018-12-26T14:50:13.580Z,4.90
2018-12-26T14:52:41.048Z,4.90
2018-12-26T14:55:08.492Z,5.00
2018-12-26T14:57:36.343Z,5.00
2018-12-26T15:00:03.864Z,5.00
2018-12-26T15:02:31.432Z,4.90
2018-12-26T15:04:58.768Z,4.80
2018-12-26T15:07:26.241Z,4.90
2018-12-26T15:09:53.932Z,4.90
2018-12-26T15:12:21.306Z,4.90
2018-12-26T15:14:48.730Z,5.00
2018-12-26T15:17:16.157Z,5.00
2018-12-26T15:19:43.630Z,4.90
2018-12-26T15:22:10.977Z,4.80
2018-12-26T15:24:38.412Z,4.90
2018-12-26T15:27:06.070Z,4.90
2018-12-26T15:29:33.443Z,4.90
2018-12-26T15:32:00.964Z,5.00
2018-12-26T15:34:28.401Z,5.00
2018-12-26T15:36:55.830Z,4.90
2018-12-26T15:39:23.305Z,4.80
2018-12-26T15:41:50.617Z,4.70
2018-12-26T15:44:18.046Z,4.70
2018-12-26T15:46:45.468Z,4.70
2018-12-26T15:49:12.896Z,4.70
2018-12-26T15:51:40.337Z,4.70
2018-12-26T15:54:07.757Z,4.70
2018-12-26T15:56:35.237Z,4.80
2018-12-26T15:59:03.010Z,4.80
2018-12-26T16:01:30.382Z,4.70
2018-12-26T16:03:57.731Z,4.80
2018-12-26T16:06:25.178Z,4.80
2018-12-26T16:08:52.632Z,4.80
2018-12-26T16:11:20.147Z,4.80
2018-12-26T16:13:48.113Z,4.70
2018-12-26T16:16:15.857Z,4.70
2018-12-26T16:18:43.300Z,4.50
2018-12-26T16:21:11.064Z,4.30
2018-12-26T16:23:38.519Z,4.40
2018-12-26T16:26:06.366Z,4.50
2018-12-26T16:28:33.718Z,4.60
2018-12-26T16:31:02.297Z,4.70
2018-12-26T16:33:29.864Z,4.60
2018-12-26T16:35:57.617Z,4.60
2018-12-26T16:38:25.018Z,4.70
2018-12-26T16:40:52.773Z,4.70
2018-12-26T16:43:20.168Z,4.60
2018-12-26T16:45:47.507Z,4.70
2018-12-26T16:48:14.963Z,4.60
2018-12-26T16:50:42.410Z,4.70
2018-12-26T16:53:09.887Z,4.70
2018-12-26T16:55:38.008Z,4.70
2018-12-26T16:58:05.454Z,4.60
2018-12-26T17:00:32.913Z,4.60
2018-12-26T17:03:00.382Z,4.60
2018-12-26T17:05:28.125Z,4.60
2018-12-26T17:07:55.582Z,4.60
2018-12-26T17:10:23.001Z,4.60
2018-12-26T17:12:50.470Z,4.60
2018-12-26T17:15:17.889Z,4.70
2018-12-26T17:17:45.268Z,4.60
2018-12-26T17:20:12.917Z,4.60
2018-12-26T17:22:40.672Z,4.70
2018-12-26T17:25:08.117Z,4.70
2018-12-26T17:27:35.888Z,4.70
2018-12-26T17:30:03.815Z,4.80
2018-12-26T17:32:31.250Z,4.80
2018-12-26T17:34:58.680Z,4.70
2018-12-26T17:37:26.234Z,4.70
2018-12-26T17:39:55.036Z,4.70
2018-12-26T17:42:22.501Z,4.60
2018-12-26T17:44:50.823Z,4.60
2018-12-26T17:47:18.311Z,4.50
2018-12-26T17:49:45.713Z,4.50
2018-12-26T17:52:13.249Z,4.60
2018-12-26T17:55:10.671Z,4.70
2018-12-26T17:57:41.499Z,4.70
2018-12-26T18:00:56.999Z,4.70
2018-12-26T18:03:24.440Z,4.70
2018-12-26T18:05:52.211Z,4.70
2018-12-26T18:08:19.574Z,4.70
2018-12-26T18:10:47.013Z,4.80
2018-12-26T18:13:14.479Z,4.70
2018-12-26T18:15:41.960Z,4.70
2018-12-26T18:18:09.496Z,4.70
2018-12-26T18:20:36.961Z,4.30
2018-12-26T18:23:04.438Z,4.40
2018-12-26T18:25:31.898Z,4.50
2018-12-26T18:27:59.381Z,4.40
2018-12-26T18:30:26.863Z,4.40
2018-12-26T18:32:54.599Z,4.50
2018-12-26T18:35:22.082Z,4.60
2018-12-26T18:37:49.595Z,4.70
2018-12-26T18:40:17.096Z,4.70
2018-12-26T18:42:44.508Z,4.70
2018-12-26T18:45:11.982Z,4.60
2018-12-26T18:47:39.433Z,4.60
2018-12-26T18:50:09.353Z,4.50
2018-12-26T18:52:36.846Z,4.40
2018-12-26T18:55:05.072Z,4.30
2018-12-26T18:57:32.536Z,4.40
2018-12-26T19:00:00.152Z,4.50
2018-12-26T19:02:27.666Z,4.70
2018-12-26T19:04:55.303Z,4.90
2018-12-26T19:07:23.486Z,4.90
2018-12-26T19:09:50.963Z,4.90
2018-12-26T19:12:18.714Z,4.80
2018-12-26T19:14:46.252Z,4.70
2018-12-26T19:17:13.744Z,4.70
2018-12-26T19:19:41.256Z,4.70
2018-12-26T19:22:08.743Z,4.80
2018-12-26T19:24:36.284Z,4.80
2018-12-26T19:27:03.834Z,4.90
2018-12-26T19:29:31.995Z,4.90
2018-12-26T19:31:59.832Z,4.80
2018-12-26T19:34:27.421Z,4.90
2018-12-26T19:36:54.871Z,4.80
2018-12-26T19:39:22.497Z,4.80
2018-12-26T19:41:50.090Z,4.80
2018-12-26T19:44:17.569Z,4.80
2018-12-26T19:46:45.043Z,4.90
2018-12-26T19:49:12.553Z,4.70
2018-12-26T19:51:40.383Z,4.60
2018-12-26T19:54:07.829Z,4.70
2018-12-26T19:56:35.354Z,4.80
2018-12-26T19:59:02.817Z,4.80
2018-12-26T20:01:30.307Z,4.80
2018-12-26T20:03:58.132Z,5.00
2018-12-26T20:06:25.485Z,4.90
2018-12-26T20:08:53.074Z,4.80
2018-12-26T20:11:20.445Z,4.60
2018-12-26T20:13:47.869Z,4.80
2018-12-26T20:16:15.212Z,4.70
2018-12-26T20:18:42.498Z,4.70
2018-12-26T20:21:09.874Z,4.80
2018-12-26T20:23:37.624Z,4.70
2018-12-26T20:26:04.988Z,4.80
2018-12-26T20:28:32.265Z,4.80
2018-12-26T20:30:59.668Z,4.80
2018-12-26T20:33:27.340Z,4.60
2018-12-26T20:35:54.820Z,4.50
2018-12-26T20:38:22.246Z,4.40
2018-12-26T20:40:50.028Z,4.30
2018-12-26T20:43:17.396Z,4.30
2018-12-26T20:45:44.881Z,4.40
2018-12-26T20:48:12.267Z,4.50
2018-12-26T20:50:39.624Z,4.60
2018-12-26T20:53:07.028Z,4.60
2018-12-26T20:55:34.884Z,4.60
2018-12-26T20:58:02.459Z,4.70
2018-12-26T21:00:29.893Z,4.60
2018-12-26T21:02:57.264Z,4.70
2018-12-26T21:05:25.138Z,4.50
2018-12-26T21:07:52.594Z,4.30
2018-12-26T21:10:20.057Z,4.40
2018-12-26T21:12:47.622Z,4.40
2018-12-26T21:15:15.113Z,4.50
2018-12-26T21:17:42.661Z,4.60
2018-12-26T21:20:10.136Z,4.50
2018-12-26T21:22:38.042Z,4.50
2018-12-26T21:25:07.275Z,4.30
2018-12-26T21:27:34.874Z,4.40
2018-12-26T21:30:02.876Z,4.40
2018-12-26T21:32:30.761Z,4.40
2018-12-26T21:34:58.460Z,4.40
2018-12-26T21:37:26.289Z,4.50
2018-12-26T21:39:53.784Z,4.30
2018-12-26T21:42:21.539Z,4.30
2018-12-26T21:44:49.266Z,4.40
2018-12-26T21:47:17.108Z,4.60
2018-12-26T21:49:44.653Z,4.50
2018-12-26T21:52:12.153Z,4.50
2018-12-26T21:54:39.678Z,4.30
2018-12-26T21:57:07.154Z,4.20
2018-12-26T21:59:34.657Z,4.40
2018-12-26T22:02:02.446Z,4.30
2018-12-26T22:04:29.848Z,4.40
2018-12-26T22:06:57.296Z,4.50
2018-12-26T22:09:24.810Z,4.40
2018-12-26T22:11:52.272Z,4.10
2018-12-26T22:14:19.767Z,4.10
2018-12-26T22:16:47.221Z,4.30
2018-12-26T22:19:14.680Z,4.30
2018-12-26T22:21:42.066Z,4.50
2018-12-26T22:24:09.567Z,4.20
2018-12-26T22:26:43.197Z,4.30
2018-12-26T22:29:06.333Z,4.30
2018-12-26T22:31:33.821Z,4.40
2018-12-26T22:34:01.349Z,4.50
2018-12-26T22:36:28.782Z,4.60
2018-12-26T22:38:56.243Z,4.50
2018-12-26T22:41:23.701Z,4.60
2018-12-26T22:43:51.841Z,4.60
2018-12-26T22:46:19.302Z,4.30
2018-12-26T22:48:46.769Z,4.20
2018-12-26T22:51:14.199Z,4.30
2018-12-26T22:53:41.658Z,4.40
2018-12-26T22:56:09.124Z,4.50
2018-12-26T22:58:36.530Z,4.60
2018-12-26T23:01:04.016Z,4.70
2018-12-26T23:03:31.844Z,4.70
2018-12-26T23:05:59.236Z,4.60
2018-12-26T23:08:26.594Z,4.60
2018-12-26T23:10:54.018Z,4.70
2018-12-26T23:13:21.516Z,4.70
2018-12-26T23:15:49.198Z,4.60
2018-12-26T23:18:16.565Z,4.60
2018-12-26T23:20:44.015Z,4.70
2018-12-26T23:23:11.348Z,4.60
2018-12-26T23:25:38.776Z,4.60
2018-12-26T23:28:06.201Z,4.60
2018-12-26T23:30:33.563Z,4.60
2018-12-26T23:33:00.987Z,4.60
2018-12-26T23:35:28.423Z,4.30
2018-12-26T23:37:55.769Z,4.40
2018-12-26T23:40:23.166Z,4.60
2018-12-26T23:42:50.921Z,4.50
2018-12-26T23:45:18.314Z,4.60
2018-12-26T23:47:45.633Z,4.60
2018-12-26T23:50:13.017Z,4.50
2018-12-26T23:52:40.233Z,4.50
2018-12-26T23:55:07.618Z,4.60
2018-12-26T23:57:35.024Z,4.70
